RJFFRJFO

Guest
Details From RJFF - FUKUOKA
To RJFO - OITA
Flight Number -
Tags generated
Created
Modified
Stats Distance 71 nm / 132 km
Max Altitude 8,600 ft / 2,621 m
Waypoints 3
Social Downloads 1
Likes 0
Share VATSIM

Download

Looking for another format? Having issues loading an existing format? Contact us
Advertisement - Login to hide

Notes

Basic altitude profile: - Ascent Rate: 2500ft/min - Ascent Speed: 250kts - Cruise Altitude: 35000ft - Cruise Speed: 420kts - Descent Rate: 1500ft/min - Descent Speed: 250kts Options: - Use NATs: yes - Use PACOTS: yes - Use low airways: yes - Use high airways: yes

Route

RJFF DGC25 RJFO

ID Type Via Altitude Latitude Longitude Leg Dist Tot Dist Heading (true) Name
O RJFF APT - 0 ft / 0 m 33.58594˚ 130.45069˚ - 0 nm - FUKUOKA
DGC25 FIX - 8,600 ft / 2,621 m 33.78821˚ 130.87091˚ 24 nm 24 nm 60° / 60° -
O RJFO APT - 0 ft / 0 m 33.47950˚ 131.73712˚ 47 nm 71 nm 113° / 113° OITA

Altitude Profile

Advertisement - Login to hide

RJFF

Details ICAO RJFF (FUK)
Name FUKUOKA
Region Japan
Timezone Asia/Tokyo (UTC+9.0)
Stats Elevation 32 ft / 10 m (AMSL)
Location 33.585943° 130.450686°
Runways 1
Magnetic Variation 7.481° W

METAR

RJFF 210900Z 07014KT 9999 FEW035 BKN/// 24/12 Q1014 RMK 1CU035 A2994

Decode

TAF

TAF RJFF 210509Z 2106/2212 12010KT 9999 FEW030 SCT040

Decode

Departure Runways

ID Width Length Bearing (true) Bearing (mag) Surface Threshold Offset Overrun Length
16 197 ft / 60 m 9,217 ft / 2,810 m 150.35° 157.83° Asphalt 0 ft / 0 m 719 ft / 219 m
34 197 ft / 60 m 9,217 ft / 2,810 m 330.35° 337.83° Asphalt 0 ft / 0 m 801 ft / 244 m

RJFO

Details ICAO RJFO (OIT)
Name OITA
Region Japan
Timezone Asia/Tokyo (UTC+9.0)
Stats Elevation 19 ft / 6 m (AMSL)
Location 33.479503° 131.737125°
Runways 1
Magnetic Variation 7.454° W

METAR

RJFO 210900Z 18006KT 9999 FEW030 BKN060 19/15 Q1017

Decode

TAF

TAF RJFO 210506Z 2106/2212 13010KT 9999 FEW030 SCT050 BECMG 2115/2117 07007KT BECMG 2206/2209 15003KT

Decode

Destination Runways

ID Width Length Bearing (true) Bearing (mag) Surface Threshold Offset Overrun Length
01 150 ft / 46 m 9,869 ft / 3,008 m 0.42° 7.87° Asphalt 0 ft / 0 m 200 ft / 61 m
19 150 ft / 46 m 9,869 ft / 3,008 m 180.42° 187.87° Asphalt 0 ft / 0 m 200 ft / 61 m

Approach Navaids

Runway Type Ident Frequency Range Bearing (true) Bearing (mag) Slope Elevation
01 Localiser ITF 111.50 MHz 18 nm / 33 km 0.42° 7.88° - 19 ft / 6 m (AMSL)
01 Glidescope ITF 111.50 MHz 10 nm / 19 km 0.42° 7.88° 3.00° 54 ft / 16 m (AMSL)
01 DME ITF 111.50 MHz 18 nm / 33 km - - - 38 ft / 12 m (AMSL)